sensor_id;sensor_type;location;lat;lon;timestamp;temperature;humidity
28552;DHT22;15752;49.560;8.708;2023-02-28T00:01:35;5.20;90.20
28552;DHT22;15752;49.560;8.708;2023-02-28T00:04:05;5.20;90.30
28552;DHT22;15752;49.560;8.708;2023-02-28T00:06:36;5.20;90.30
28552;DHT22;15752;49.560;8.708;2023-02-28T00:09:04;5.20;90.40
28552;DHT22;15752;49.560;8.708;2023-02-28T00:11:32;5.20;90.60
28552;DHT22;15752;49.560;8.708;2023-02-28T00:14:01;5.20;90.50
28552;DHT22;15752;49.560;8.708;2023-02-28T00:16:29;5.20;90.40
28552;DHT22;15752;49.560;8.708;2023-02-28T00:18:58;5.30;90.30
28552;DHT22;15752;49.560;8.708;2023-02-28T00:21:27;5.20;90.00
28552;DHT22;15752;49.560;8.708;2023-02-28T00:23:56;5.20;90.00
28552;DHT22;15752;49.560;8.708;2023-02-28T00:26:25;5.10;90.00
28552;DHT22;15752;49.560;8.708;2023-02-28T00:28:53;5.30;90.10
28552;DHT22;15752;49.560;8.708;2023-02-28T00:31:22;5.30;90.30
28552;DHT22;15752;49.560;8.708;2023-02-28T00:33:50;5.10;90.40
28552;DHT22;15752;49.560;8.708;2023-02-28T00:36:20;5.10;90.50
28552;DHT22;15752;49.560;8.708;2023-02-28T00:38:50;5.10;90.20
28552;DHT22;15752;49.560;8.708;2023-02-28T00:41:18;5.10;90.50
28552;DHT22;15752;49.560;8.708;2023-02-28T00:43:47;5.20;90.20
28552;DHT22;15752;49.560;8.708;2023-02-28T00:46:15;5.10;90.30
28552;DHT22;15752;49.560;8.708;2023-02-28T00:48:43;5.00;90.40
28552;DHT22;15752;49.560;8.708;2023-02-28T00:51:12;5.00;90.60
28552;DHT22;15752;49.560;8.708;2023-02-28T00:53:40;5.00;90.30
28552;DHT22;15752;49.560;8.708;2023-02-28T00:56:10;5.20;90.00
28552;DHT22;15752;49.560;8.708;2023-02-28T00:58:39;5.00;90.20
28552;DHT22;15752;49.560;8.708;2023-02-28T01:01:07;4.90;90.40
28552;DHT22;15752;49.560;8.708;2023-02-28T01:03:37;4.90;90.50
28552;DHT22;15752;49.560;8.708;2023-02-28T01:06:06;5.00;90.70
28552;DHT22;15752;49.560;8.708;2023-02-28T01:08:35;4.90;90.50
28552;DHT22;15752;49.560;8.708;2023-02-28T01:11:16;5.00;90.30
28552;DHT22;15752;49.560;8.708;2023-02-28T01:13:45;4.80;90.50
28552;DHT22;15752;49.560;8.708;2023-02-28T01:16:14;4.80;90.60
28552;DHT22;15752;49.560;8.708;2023-02-28T01:18:43;4.80;90.50
28552;DHT22;15752;49.560;8.708;2023-02-28T01:21:14;4.80;90.70
28552;DHT22;15752;49.560;8.708;2023-02-28T01:23:44;4.80;90.60
28552;DHT22;15752;49.560;8.708;2023-02-28T01:26:16;4.80;90.80
28552;DHT22;15752;49.560;8.708;2023-02-28T01:28:46;4.70;91.10
28552;DHT22;15752;49.560;8.708;2023-02-28T01:31:16;4.70;90.80
28552;DHT22;15752;49.560;8.708;2023-02-28T01:34:08;4.90;91.00
28552;DHT22;15752;49.560;8.708;2023-02-28T01:36:37;4.70;90.90
28552;DHT22;15752;49.560;8.708;2023-02-28T01:39:05;4.70;90.90
28552;DHT22;15752;49.560;8.708;2023-02-28T01:41:35;4.70;90.90
28552;DHT22;15752;49.560;8.708;2023-02-28T01:44:05;4.70;90.80
28552;DHT22;15752;49.560;8.708;2023-02-28T01:46:35;4.70;91.00
28552;DHT22;15752;49.560;8.708;2023-02-28T01:49:07;4.70;90.70
28552;DHT22;15752;49.560;8.708;2023-02-28T01:51:40;4.70;90.70
28552;DHT22;15752;49.560;8.708;2023-02-28T01:54:15;4.60;90.60
28552;DHT22;15752;49.560;8.708;2023-02-28T01:56:49;4.60;90.80
28552;DHT22;15752;49.560;8.708;2023-02-28T01:59:23;4.60;91.00
28552;DHT22;15752;49.560;8.708;2023-02-28T02:01:55;4.60;91.10
28552;DHT22;15752;49.560;8.708;2023-02-28T02:04:26;4.70;90.90
28552;DHT22;15752;49.560;8.708;2023-02-28T02:06:58;4.60;91.10
28552;DHT22;15752;49.560;8.708;2023-02-28T02:09:27;4.60;91.10
28552;DHT22;15752;49.560;8.708;2023-02-28T02:11:57;4.60;91.00
28552;DHT22;15752;49.560;8.708;2023-02-28T02:14:48;4.80;91.10
28552;DHT22;15752;49.560;8.708;2023-02-28T02:17:32;4.60;91.20
28552;DHT22;15752;49.560;8.708;2023-02-28T02:23:39;4.50;91.10
28552;DHT22;15752;49.560;8.708;2023-02-28T02:29:38;4.50;91.20
28552;DHT22;15752;49.560;8.708;2023-02-28T02:32:25;4.40;91.10
28552;DHT22;15752;49.560;8.708;2023-02-28T02:35:12;4.40;91.20
28552;DHT22;15752;49.560;8.708;2023-02-28T02:37:48;4.40;91.20
28552;DHT22;15752;49.560;8.708;2023-02-28T02:40:20;4.40;91.00
28552;DHT22;15752;49.560;8.708;2023-02-28T02:42:52;4.40;91.00
28552;DHT22;15752;49.560;8.708;2023-02-28T02:45:27;4.50;91.10
28552;DHT22;15752;49.560;8.708;2023-02-28T02:48:04;4.30;91.30
28552;DHT22;15752;49.560;8.708;2023-02-28T02:50:39;4.30;91.40
28552;DHT22;15752;49.560;8.708;2023-02-28T02:53:10;4.30;91.40
28552;DHT22;15752;49.560;8.708;2023-02-28T02:55:43;4.50;91.50
28552;DHT22;15752;49.560;8.708;2023-02-28T02:58:16;4.30;91.60
28552;DHT22;15752;49.560;8.708;2023-02-28T03:00:57;4.30;91.60
28552;DHT22;15752;49.560;8.708;2023-02-28T03:03:29;4.30;91.70
28552;DHT22;15752;49.560;8.708;2023-02-28T03:06:01;4.30;91.60
28552;DHT22;15752;49.560;8.708;2023-02-28T03:08:36;4.30;91.70
28552;DHT22;15752;49.560;8.708;2023-02-28T03:11:10;4.30;91.60
28552;DHT22;15752;49.560;8.708;2023-02-28T03:17:16;4.30;91.80
28552;DHT22;15752;49.560;8.708;2023-02-28T03:20:03;4.30;91.90
28552;DHT22;15752;49.560;8.708;2023-02-28T03:22:58;4.30;91.70
28552;DHT22;15752;49.560;8.708;2023-02-28T03:25:35;4.30;91.90
28552;DHT22;15752;49.560;8.708;2023-02-28T03:28:14;4.30;91.80
28552;DHT22;15752;49.560;8.708;2023-02-28T03:30:49;4.30;91.60
28552;DHT22;15752;49.560;8.708;2023-02-28T03:33:22;4.30;92.00
28552;DHT22;15752;49.560;8.708;2023-02-28T03:35:56;4.30;91.80
28552;DHT22;15752;49.560;8.708;2023-02-28T03:38:31;4.40;91.80
28552;DHT22;15752;49.560;8.708;2023-02-28T03:41:06;4.40;91.80
28552;DHT22;15752;49.560;8.708;2023-02-28T03:43:42;4.30;91.90
28552;DHT22;15752;49.560;8.708;2023-02-28T03:46:15;4.40;92.30
28552;DHT22;15752;49.560;8.708;2023-02-28T03:48:51;4.30;91.90
28552;DHT22;15752;49.560;8.708;2023-02-28T03:51:24;4.50;91.90
28552;DHT22;15752;49.560;8.708;2023-02-28T03:53:58;4.20;91.80
28552;DHT22;15752;49.560;8.708;2023-02-28T03:56:32;4.30;91.80
28552;DHT22;15752;49.560;8.708;2023-02-28T03:59:06;4.30;91.80
28552;DHT22;15752;49.560;8.708;2023-02-28T04:01:39;4.40;92.00
28552;DHT22;15752;49.560;8.708;2023-02-28T04:04:10;4.40;91.80
28552;DHT22;15752;49.560;8.708;2023-02-28T04:06:40;4.20;91.90
28552;DHT22;15752;49.560;8.708;2023-02-28T04:09:11;4.20;91.80
28552;DHT22;15752;49.560;8.708;2023-02-28T04:11:42;4.40;91.80
28552;DHT22;15752;49.560;8.708;2023-02-28T04:14:13;4.30;91.90
28552;DHT22;15752;49.560;8.708;2023-02-28T04:19:21;4.10;91.90
28552;DHT22;15752;49.560;8.708;2023-02-28T04:21:51;4.10;91.70
28552;DHT22;15752;49.560;8.708;2023-02-28T04:24:22;4.10;91.90
28552;DHT22;15752;49.560;8.708;2023-02-28T04:26:53;4.10;91.90
28552;DHT22;15752;49.560;8.708;2023-02-28T04:29:25;4.10;92.00
28552;DHT22;15752;49.560;8.708;2023-02-28T04:31:55;4.10;92.00
28552;DHT22;15752;49.560;8.708;2023-02-28T04:34:26;4.10;92.00
28552;DHT22;15752;49.560;8.708;2023-02-28T04:36:55;4.10;92.00
28552;DHT22;15752;49.560;8.708;2023-02-28T04:39:42;4.00;91.90
28552;DHT22;15752;49.560;8.708;2023-02-28T04:42:10;4.00;92.20
28552;DHT22;15752;49.560;8.708;2023-02-28T04:44:40;4.00;91.80
28552;DHT22;15752;49.560;8.708;2023-02-28T04:47:08;4.00;91.50
28552;DHT22;15752;49.560;8.708;2023-02-28T04:49:36;4.00;91.40
28552;DHT22;15752;49.560;8.708;2023-02-28T04:52:05;4.00;91.60
28552;DHT22;15752;49.560;8.708;2023-02-28T04:54:34;4.10;91.70
28552;DHT22;15752;49.560;8.708;2023-02-28T04:57:04;3.90;91.80
28552;DHT22;15752;49.560;8.708;2023-02-28T04:59:32;4.00;91.70
28552;DHT22;15752;49.560;8.708;2023-02-28T05:02:01;3.90;91.80
28552;DHT22;15752;49.560;8.708;2023-02-28T05:04:34;3.90;91.70
28552;DHT22;15752;49.560;8.708;2023-02-28T05:07:03;3.90;91.80
28552;DHT22;15752;49.560;8.708;2023-02-28T05:09:31;3.80;91.80
28552;DHT22;15752;49.560;8.708;2023-02-28T05:12:00;4.00;91.50
28552;DHT22;15752;49.560;8.708;2023-02-28T05:14:30;3.80;91.80
28552;DHT22;15752;49.560;8.708;2023-02-28T05:16:59;3.80;91.80
28552;DHT22;15752;49.560;8.708;2023-02-28T05:19:27;3.80;91.70
28552;DHT22;15752;49.560;8.708;2023-02-28T05:21:56;3.70;91.90
28552;DHT22;15752;49.560;8.708;2023-02-28T05:24:24;3.80;91.60
28552;DHT22;15752;49.560;8.708;2023-02-28T05:26:53;4.00;91.70
28552;DHT22;15752;49.560;8.708;2023-02-28T05:29:22;3.70;92.00
28552;DHT22;15752;49.560;8.708;2023-02-28T05:31:52;3.70;91.70
28552;DHT22;15752;49.560;8.708;2023-02-28T05:34:20;3.70;91.80
28552;DHT22;15752;49.560;8.708;2023-02-28T05:36:49;3.60;91.80
28552;DHT22;15752;49.560;8.708;2023-02-28T05:39:17;3.60;91.80
28552;DHT22;15752;49.560;8.708;2023-02-28T05:41:45;3.60;92.00
28552;DHT22;15752;49.560;8.708;2023-02-28T05:44:15;3.60;91.90
28552;DHT22;15752;49.560;8.708;2023-02-28T05:46:43;3.70;92.20
28552;DHT22;15752;49.560;8.708;2023-02-28T05:49:13;3.60;92.10
28552;DHT22;15752;49.560;8.708;2023-02-28T05:51:41;3.60;92.00
28552;DHT22;15752;49.560;8.708;2023-02-28T05:54:10;3.60;91.90
28552;DHT22;15752;49.560;8.708;2023-02-28T05:56:39;3.60;92.30
28552;DHT22;15752;49.560;8.708;2023-02-28T05:59:10;3.80;92.20
28552;DHT22;15752;49.560;8.708;2023-02-28T06:01:41;3.60;92.10
28552;DHT22;15752;49.560;8.708;2023-02-28T06:04:18;3.60;92.30
28552;DHT22;15752;49.560;8.708;2023-02-28T06:06:57;4.00;92.50
28552;DHT22;15752;49.560;8.708;2023-02-28T06:09:26;3.70;92.60
28552;DHT22;15752;49.560;8.708;2023-02-28T06:11:54;3.70;92.10
28552;DHT22;15752;49.560;8.708;2023-02-28T06:14:23;3.80;92.10
28552;DHT22;15752;49.560;8.708;2023-02-28T06:16:51;3.70;92.30
28552;DHT22;15752;49.560;8.708;2023-02-28T06:19:21;3.70;92.30
28552;DHT22;15752;49.560;8.708;2023-02-28T06:21:53;3.70;92.30
28552;DHT22;15752;49.560;8.708;2023-02-28T06:24:24;3.70;92.50
28552;DHT22;15752;49.560;8.708;2023-02-28T06:26:55;3.70;92.50
28552;DHT22;15752;49.560;8.708;2023-02-28T06:29:24;3.70;92.20
28552;DHT22;15752;49.560;8.708;2023-02-28T06:31:53;3.70;92.50
28552;DHT22;15752;49.560;8.708;2023-02-28T06:34:23;3.70;92.20
28552;DHT22;15752;49.560;8.708;2023-02-28T06:36:52;3.70;92.10
28552;DHT22;15752;49.560;8.708;2023-02-28T06:39:20;3.90;92.50
28552;DHT22;15752;49.560;8.708;2023-02-28T06:41:49;3.70;92.30
28552;DHT22;15752;49.560;8.708;2023-02-28T06:44:22;3.70;92.30
28552;DHT22;15752;49.560;8.708;2023-02-28T06:46:51;3.70;92.50
28552;DHT22;15752;49.560;8.708;2023-02-28T06:49:19;3.70;92.40
28552;DHT22;15752;49.560;8.708;2023-02-28T06:51:49;3.70;92.50
28552;DHT22;15752;49.560;8.708;2023-02-28T06:54:17;3.70;92.40
28552;DHT22;15752;49.560;8.708;2023-02-28T06:56:46;3.80;92.40
28552;DHT22;15752;49.560;8.708;2023-02-28T06:59:14;3.80;92.30
28552;DHT22;15752;49.560;8.708;2023-02-28T07:01:43;3.80;92.40
28552;DHT22;15752;49.560;8.708;2023-02-28T07:04:12;3.40;92.30
28552;DHT22;15752;49.560;8.708;2023-02-28T07:06:41;3.80;92.30
28552;DHT22;15752;49.560;8.708;2023-02-28T07:09:10;3.80;92.30
28552;DHT22;15752;49.560;8.708;2023-02-28T07:11:40;3.80;92.30
28552;DHT22;15752;49.560;8.708;2023-02-28T07:14:09;3.80;92.50
28552;DHT22;15752;49.560;8.708;2023-02-28T07:16:38;3.80;92.40
28552;DHT22;15752;49.560;8.708;2023-02-28T07:19:06;3.80;92.30
28552;DHT22;15752;49.560;8.708;2023-02-28T07:21:34;4.00;92.40
28552;DHT22;15752;49.560;8.708;2023-02-28T07:24:03;3.80;92.30
28552;DHT22;15752;49.560;8.708;2023-02-28T07:26:33;3.80;92.40
28552;DHT22;15752;49.560;8.708;2023-02-28T07:29:01;3.90;92.20
28552;DHT22;15752;49.560;8.708;2023-02-28T07:31:30;3.80;92.10
28552;DHT22;15752;49.560;8.708;2023-02-28T07:33:58;3.80;92.10
28552;DHT22;15752;49.560;8.708;2023-02-28T07:36:27;3.80;92.10
28552;DHT22;15752;49.560;8.708;2023-02-28T07:38:55;3.80;92.20
28552;DHT22;15752;49.560;8.708;2023-02-28T07:41:23;3.80;92.10
28552;DHT22;15752;49.560;8.708;2023-02-28T07:43:56;3.90;92.00
28552;DHT22;15752;49.560;8.708;2023-02-28T07:46:26;3.80;92.20
28552;DHT22;15752;49.560;8.708;2023-02-28T07:48:56;3.80;92.40
28552;DHT22;15752;49.560;8.708;2023-02-28T07:51:26;3.80;92.30
28552;DHT22;15752;49.560;8.708;2023-02-28T07:53:55;3.80;92.30
28552;DHT22;15752;49.560;8.708;2023-02-28T07:56:24;3.80;92.50
28552;DHT22;15752;49.560;8.708;2023-02-28T07:58:52;3.80;92.30
28552;DHT22;15752;49.560;8.708;2023-02-28T08:01:22;3.80;92.30
28552;DHT22;15752;49.560;8.708;2023-02-28T08:03:50;3.90;92.10
28552;DHT22;15752;49.560;8.708;2023-02-28T08:06:22;3.80;92.30
28552;DHT22;15752;49.560;8.708;2023-02-28T08:08:52;3.90;92.50
28552;DHT22;15752;49.560;8.708;2023-02-28T08:11:22;3.90;92.50
28552;DHT22;15752;49.560;8.708;2023-02-28T08:13:51;3.90;92.30
28552;DHT22;15752;49.560;8.708;2023-02-28T08:16:19;3.90;92.20
28552;DHT22;15752;49.560;8.708;2023-02-28T08:18:51;3.90;92.30
28552;DHT22;15752;49.560;8.708;2023-02-28T08:21:21;3.90;92.50
28552;DHT22;15752;49.560;8.708;2023-02-28T08:23:50;4.00;92.30
28552;DHT22;15752;49.560;8.708;2023-02-28T08:26:19;4.00;92.50
28552;DHT22;15752;49.560;8.708;2023-02-28T08:28:48;4.00;92.50
28552;DHT22;15752;49.560;8.708;2023-02-28T08:31:17;4.00;92.50
28552;DHT22;15752;49.560;8.708;2023-02-28T08:33:46;4.00;92.40
28552;DHT22;15752;49.560;8.708;2023-02-28T08:36:17;4.10;92.50
28552;DHT22;15752;49.560;8.708;2023-02-28T08:38:45;4.10;92.50
28552;DHT22;15752;49.560;8.708;2023-02-28T08:41:14;4.10;92.30
28552;DHT22;15752;49.560;8.708;2023-02-28T08:43:42;4.20;92.30
28552;DHT22;15752;49.560;8.708;2023-02-28T08:46:12;4.20;92.30
28552;DHT22;15752;49.560;8.708;2023-02-28T08:48:41;4.20;92.40
28552;DHT22;15752;49.560;8.708;2023-02-28T08:51:12;4.20;92.10
28552;DHT22;15752;49.560;8.708;2023-02-28T08:53:44;4.30;92.30
28552;DHT22;15752;49.560;8.708;2023-02-28T08:56:14;4.50;92.20
28552;DHT22;15752;49.560;8.708;2023-02-28T08:58:45;4.40;92.20
28552;DHT22;15752;49.560;8.708;2023-02-28T09:01:16;4.40;92.20
28552;DHT22;15752;49.560;8.708;2023-02-28T09:03:46;4.50;92.20
28552;DHT22;15752;49.560;8.708;2023-02-28T09:06:18;4.50;92.10
28552;DHT22;15752;49.560;8.708;2023-02-28T09:08:48;4.50;92.00
28552;DHT22;15752;49.560;8.708;2023-02-28T09:11:17;4.60;91.90
28552;DHT22;15752;49.560;8.708;2023-02-28T09:13:46;4.60;92.10
28552;DHT22;15752;49.560;8.708;2023-02-28T09:16:15;4.60;91.90
28552;DHT22;15752;49.560;8.708;2023-02-28T09:18:45;4.70;92.00
28552;DHT22;15752;49.560;8.708;2023-02-28T09:21:14;4.70;91.70
28552;DHT22;15752;49.560;8.708;2023-02-28T09:23:46;4.80;91.90
28552;DHT22;15752;49.560;8.708;2023-02-28T09:26:19;4.80;91.80
28552;DHT22;15752;49.560;8.708;2023-02-28T09:28:49;4.80;91.90
28552;DHT22;15752;49.560;8.708;2023-02-28T09:31:20;4.90;91.50
28552;DHT22;15752;49.560;8.708;2023-02-28T09:33:52;5.20;91.80
28552;DHT22;15752;49.560;8.708;2023-02-28T09:36:22;5.00;91.70
28552;DHT22;15752;49.560;8.708;2023-02-28T09:39:08;5.00;91.60
28552;DHT22;15752;49.560;8.708;2023-02-28T09:41:38;5.10;91.50
28552;DHT22;15752;49.560;8.708;2023-02-28T09:44:28;5.10;91.50
28552;DHT22;15752;49.560;8.708;2023-02-28T09:47:01;5.10;91.40
28552;DHT22;15752;49.560;8.708;2023-02-28T09:49:39;5.20;91.30
28552;DHT22;15752;49.560;8.708;2023-02-28T09:52:12;5.20;91.40
28552;DHT22;15752;49.560;8.708;2023-02-28T09:54:44;5.20;91.50
28552;DHT22;15752;49.560;8.708;2023-02-28T09:57:19;5.30;91.40
28552;DHT22;15752;49.560;8.708;2023-02-28T10:00:00;5.30;91.20
28552;DHT22;15752;49.560;8.708;2023-02-28T10:02:48;5.30;91.40
28552;DHT22;15752;49.560;8.708;2023-02-28T10:05:23;5.30;91.00
28552;DHT22;15752;49.560;8.708;2023-02-28T10:08:01;5.40;90.90
28552;DHT22;15752;49.560;8.708;2023-02-28T10:10:40;5.40;91.10
28552;DHT22;15752;49.560;8.708;2023-02-28T10:13:17;5.40;91.10
28552;DHT22;15752;49.560;8.708;2023-02-28T10:15:52;5.40;90.90
28552;DHT22;15752;49.560;8.708;2023-02-28T10:18:26;5.70;91.00
28552;DHT22;15752;49.560;8.708;2023-02-28T10:20:57;5.50;90.90
28552;DHT22;15752;49.560;8.708;2023-02-28T10:23:31;5.50;90.90
28552;DHT22;15752;49.560;8.708;2023-02-28T10:26:09;5.70;90.90
28552;DHT22;15752;49.560;8.708;2023-02-28T10:28:43;5.60;90.70
28552;DHT22;15752;49.560;8.708;2023-02-28T10:31:15;5.90;90.90
28552;DHT22;15752;49.560;8.708;2023-02-28T10:33:47;5.60;90.60
28552;DHT22;15752;49.560;8.708;2023-02-28T10:36:18;5.70;90.60
28552;DHT22;15752;49.560;8.708;2023-02-28T10:38:49;5.70;90.60
28552;DHT22;15752;49.560;8.708;2023-02-28T10:41:28;5.70;90.60
28552;DHT22;15752;49.560;8.708;2023-02-28T10:44:14;5.70;90.40
28552;DHT22;15752;49.560;8.708;2023-02-28T10:46:46;5.80;90.30
28552;DHT22;15752;49.560;8.708;2023-02-28T10:49:17;5.80;90.50
28552;DHT22;15752;49.560;8.708;2023-02-28T10:51:52;5.80;90.40
28552;DHT22;15752;49.560;8.708;2023-02-28T10:54:27;5.90;90.20
28552;DHT22;15752;49.560;8.708;2023-02-28T10:57:16;5.90;90.40
28552;DHT22;15752;49.560;8.708;2023-02-28T10:59:46;5.90;90.40
28552;DHT22;15752;49.560;8.708;2023-02-28T11:02:34;5.90;90.40
28552;DHT22;15752;49.560;8.708;2023-02-28T11:05:27;6.00;90.30
28552;DHT22;15752;49.560;8.708;2023-02-28T11:08:04;6.00;90.20
28552;DHT22;15752;49.560;8.708;2023-02-28T11:10:34;6.00;90.20
28552;DHT22;15752;49.560;8.708;2023-02-28T11:13:05;6.30;90.20
28552;DHT22;15752;49.560;8.708;2023-02-28T11:15:35;6.30;90.10
28552;DHT22;15752;49.560;8.708;2023-02-28T11:18:21;6.10;90.20
28552;DHT22;15752;49.560;8.708;2023-02-28T11:20:52;6.20;90.20
28552;DHT22;15752;49.560;8.708;2023-02-28T11:23:25;6.20;90.00
28552;DHT22;15752;49.560;8.708;2023-02-28T11:25:57;6.20;90.00
28552;DHT22;15752;49.560;8.708;2023-02-28T11:28:30;6.30;90.00
28552;DHT22;15752;49.560;8.708;2023-02-28T11:31:09;6.30;90.00
28552;DHT22;15752;49.560;8.708;2023-02-28T11:33:45;6.40;90.00
28552;DHT22;15752;49.560;8.708;2023-02-28T11:36:20;6.40;89.80
28552;DHT22;15752;49.560;8.708;2023-02-28T11:38:52;6.40;89.50
28552;DHT22;15752;49.560;8.708;2023-02-28T11:41:38;6.50;90.00
28552;DHT22;15752;49.560;8.708;2023-02-28T11:44:31;6.50;90.10
28552;DHT22;15752;49.560;8.708;2023-02-28T11:47:13;6.80;89.30
28552;DHT22;15752;49.560;8.708;2023-02-28T11:49:47;6.60;88.50
28552;DHT22;15752;49.560;8.708;2023-02-28T11:52:35;6.60;89.00
28552;DHT22;15752;49.560;8.708;2023-02-28T11:55:16;6.70;89.30
28552;DHT22;15752;49.560;8.708;2023-02-28T11:58:05;6.70;88.60
28552;DHT22;15752;49.560;8.708;2023-02-28T12:00:57;6.70;88.80
28552;DHT22;15752;49.560;8.708;2023-02-28T12:03:39;6.90;88.80
28552;DHT22;15752;49.560;8.708;2023-02-28T12:06:18;6.80;88.50
28552;DHT22;15752;49.560;8.708;2023-02-28T12:09:04;7.00;89.50
28552;DHT22;15752;49.560;8.708;2023-02-28T12:11:48;6.80;88.60
28552;DHT22;15752;49.560;8.708;2023-02-28T12:17:43;6.90;88.50
28552;DHT22;15752;49.560;8.708;2023-02-28T12:20:27;6.90;88.50
28552;DHT22;15752;49.560;8.708;2023-02-28T12:23:18;7.10;88.70
28552;DHT22;15752;49.560;8.708;2023-02-28T12:26:02;7.00;88.20
28552;DHT22;15752;49.560;8.708;2023-02-28T12:28:41;7.00;88.30
28552;DHT22;15752;49.560;8.708;2023-02-28T12:31:16;7.10;88.20
28552;DHT22;15752;49.560;8.708;2023-02-28T12:33:51;7.30;88.50
28552;DHT22;15752;49.560;8.708;2023-02-28T12:36:20;7.10;88.30
28552;DHT22;15752;49.560;8.708;2023-02-28T12:38:55;7.30;88.50
28552;DHT22;15752;49.560;8.708;2023-02-28T12:41:31;7.20;87.70
28552;DHT22;15752;49.560;8.708;2023-02-28T12:44:07;7.20;88.60
28552;DHT22;15752;49.560;8.708;2023-02-28T12:46:42;7.20;87.90
28552;DHT22;15752;49.560;8.708;2023-02-28T12:49:15;7.30;87.70
28552;DHT22;15752;49.560;8.708;2023-02-28T12:51:46;7.50;87.40
28552;DHT22;15752;49.560;8.708;2023-02-28T12:54:20;7.50;87.60
28552;DHT22;15752;49.560;8.708;2023-02-28T12:56:56;7.30;86.60
28552;DHT22;15752;49.560;8.708;2023-02-28T12:59:38;7.30;87.00
28552;DHT22;15752;49.560;8.708;2023-02-28T13:02:49;7.30;87.50
28552;DHT22;15752;49.560;8.708;2023-02-28T13:06:03;7.30;86.60
28552;DHT22;15752;49.560;8.708;2023-02-28T13:08:53;7.30;86.50
28552;DHT22;15752;49.560;8.708;2023-02-28T13:11:29;7.30;86.40
28552;DHT22;15752;49.560;8.708;2023-02-28T13:14:01;7.30;86.50
28552;DHT22;15752;49.560;8.708;2023-02-28T13:16:56;7.30;86.60
28552;DHT22;15752;49.560;8.708;2023-02-28T13:19:28;7.50;86.50
28552;DHT22;15752;49.560;8.708;2023-02-28T13:22:01;7.30;86.20
28552;DHT22;15752;49.560;8.708;2023-02-28T13:24:51;7.30;86.00
28552;DHT22;15752;49.560;8.708;2023-02-28T13:27:37;7.40;85.50
28552;DHT22;15752;49.560;8.708;2023-02-28T13:33:31;7.30;85.60
28552;DHT22;15752;49.560;8.708;2023-02-28T13:36:23;7.30;86.70
28552;DHT22;15752;49.560;8.708;2023-02-28T13:38:56;7.30;86.00
28552;DHT22;15752;49.560;8.708;2023-02-28T13:41:47;7.40;86.40
28552;DHT22;15752;49.560;8.708;2023-02-28T13:44:17;7.30;86.20
28552;DHT22;15752;49.560;8.708;2023-02-28T13:50:23;7.30;85.60
28552;DHT22;15752;49.560;8.708;2023-02-28T13:53:29;7.30;85.80
28552;DHT22;15752;49.560;8.708;2023-02-28T13:56:18;7.30;85.70
28552;DHT22;15752;49.560;8.708;2023-02-28T13:58:55;7.30;85.90
28552;DHT22;15752;49.560;8.708;2023-02-28T14:01:35;7.50;86.00
28552;DHT22;15752;49.560;8.708;2023-02-28T14:07:20;7.60;86.90
28552;DHT22;15752;49.560;8.708;2023-02-28T14:09:56;7.50;86.40
28552;DHT22;15752;49.560;8.708;2023-02-28T14:15:56;7.40;85.70
28552;DHT22;15752;49.560;8.708;2023-02-28T14:18:28;7.60;86.40
28552;DHT22;15752;49.560;8.708;2023-02-28T14:21:08;7.40;85.50
28552;DHT22;15752;49.560;8.708;2023-02-28T14:24:02;7.40;85.30
28552;DHT22;15752;49.560;8.708;2023-02-28T14:26:54;7.60;85.60
28552;DHT22;15752;49.560;8.708;2023-02-28T14:32:45;7.40;85.50
28552;DHT22;15752;49.560;8.708;2023-02-28T14:35:28;7.40;85.50
28552;DHT22;15752;49.560;8.708;2023-02-28T14:38:15;7.60;85.50
28552;DHT22;15752;49.560;8.708;2023-02-28T14:40:46;7.60;85.60
28552;DHT22;15752;49.560;8.708;2023-02-28T14:43:21;7.40;85.50
28552;DHT22;15752;49.560;8.708;2023-02-28T14:45:55;7.40;85.10
28552;DHT22;15752;49.560;8.708;2023-02-28T14:48:26;7.50;84.70
28552;DHT22;15752;49.560;8.708;2023-02-28T14:50:57;7.60;85.10
28552;DHT22;15752;49.560;8.708;2023-02-28T14:53:30;7.40;85.10
28552;DHT22;15752;49.560;8.708;2023-02-28T14:56:03;7.40;84.70
28552;DHT22;15752;49.560;8.708;2023-02-28T14:58:33;7.40;84.70
28552;DHT22;15752;49.560;8.708;2023-02-28T15:01:04;7.30;84.70
28552;DHT22;15752;49.560;8.708;2023-02-28T15:03:34;7.40;85.10
28552;DHT22;15752;49.560;8.708;2023-02-28T15:06:05;7.50;84.90
28552;DHT22;15752;49.560;8.708;2023-02-28T15:08:39;7.40;85.10
28552;DHT22;15752;49.560;8.708;2023-02-28T15:11:09;7.40;85.20
28552;DHT22;15752;49.560;8.708;2023-02-28T15:13:43;7.60;85.10
28552;DHT22;15752;49.560;8.708;2023-02-28T15:16:19;7.50;84.90
28552;DHT22;15752;49.560;8.708;2023-02-28T15:18:54;7.50;84.90
28552;DHT22;15752;49.560;8.708;2023-02-28T15:21:28;7.40;84.70
28552;DHT22;15752;49.560;8.708;2023-02-28T15:24:02;7.40;84.60
28552;DHT22;15752;49.560;8.708;2023-02-28T15:26:36;7.60;85.10
28552;DHT22;15752;49.560;8.708;2023-02-28T15:29:08;7.50;84.90
28552;DHT22;15752;49.560;8.708;2023-02-28T15:31:44;7.60;84.70
28552;DHT22;15752;49.560;8.708;2023-02-28T15:34:29;7.40;84.60
28552;DHT22;15752;49.560;8.708;2023-02-28T15:37:33;7.40;84.60
28552;DHT22;15752;49.560;8.708;2023-02-28T15:40:17;7.40;84.20
28552;DHT22;15752;49.560;8.708;2023-02-28T15:43:05;7.50;85.10
28552;DHT22;15752;49.560;8.708;2023-02-28T15:45:37;7.50;85.30
28552;DHT22;15752;49.560;8.708;2023-02-28T15:48:20;7.70;84.60
28552;DHT22;15752;49.560;8.708;2023-02-28T15:50:52;7.40;85.20
28552;DHT22;15752;49.560;8.708;2023-02-28T15:53:23;7.40;84.70
28552;DHT22;15752;49.560;8.708;2023-02-28T15:56:00;7.20;84.40
28552;DHT22;15752;49.560;8.708;2023-02-28T15:58:30;7.40;85.10
28552;DHT22;15752;49.560;8.708;2023-02-28T16:01:07;7.40;84.40
28552;DHT22;15752;49.560;8.708;2023-02-28T16:03:49;7.40;84.40
28552;DHT22;15752;49.560;8.708;2023-02-28T16:06:36;7.40;84.40
28552;DHT22;15752;49.560;8.708;2023-02-28T16:09:10;7.60;84.50
28552;DHT22;15752;49.560;8.708;2023-02-28T16:11:42;7.40;84.60
28552;DHT22;15752;49.560;8.708;2023-02-28T16:14:15;7.40;84.40
28552;DHT22;15752;49.560;8.708;2023-02-28T16:16:47;7.40;84.40
28552;DHT22;15752;49.560;8.708;2023-02-28T16:19:19;7.60;84.40
28552;DHT22;15752;49.560;8.708;2023-02-28T16:21:47;7.40;84.30
28552;DHT22;15752;49.560;8.708;2023-02-28T16:24:16;7.40;84.40
28552;DHT22;15752;49.560;8.708;2023-02-28T16:26:46;7.40;83.80
28552;DHT22;15752;49.560;8.708;2023-02-28T16:29:19;7.40;83.90
28552;DHT22;15752;49.560;8.708;2023-02-28T16:31:52;7.80;84.20
28552;DHT22;15752;49.560;8.708;2023-02-28T16:34:24;7.40;84.80
28552;DHT22;15752;49.560;8.708;2023-02-28T16:36:53;7.40;84.30
28552;DHT22;15752;49.560;8.708;2023-02-28T16:39:21;7.40;84.10
28552;DHT22;15752;49.560;8.708;2023-02-28T16:41:50;7.40;83.60
28552;DHT22;15752;49.560;8.708;2023-02-28T16:44:26;7.70;84.30
28552;DHT22;15752;49.560;8.708;2023-02-28T16:46:56;7.70;84.10
28552;DHT22;15752;49.560;8.708;2023-02-28T16:49:26;7.40;83.80
28552;DHT22;15752;49.560;8.708;2023-02-28T16:51:54;7.70;83.40
28552;DHT22;15752;49.560;8.708;2023-02-28T16:54:23;7.50;83.30
28552;DHT22;15752;49.560;8.708;2023-02-28T16:56:51;7.40;83.10
28552;DHT22;15752;49.560;8.708;2023-02-28T16:59:24;7.70;83.80